createdAt,value
2018-12-29T00:02:05.797Z,48.27
2018-12-29T00:04:34.632Z,47.87
2018-12-29T00:07:03.475Z,48.93
2018-12-29T00:09:32.338Z,48.40
2018-12-29T00:12:01.203Z,47.20
2018-12-29T00:14:30.106Z,47.20
2018-12-29T00:16:58.950Z,47.60
2018-12-29T00:19:27.831Z,47.00
2018-12-29T00:21:56.650Z,47.43
2018-12-29T00:24:25.561Z,47.80
2018-12-29T00:26:54.380Z,49.00
2018-12-29T00:29:23.204Z,50.10
2018-12-29T00:31:52.035Z,48.13
2018-12-29T00:34:20.870Z,48.70
2018-12-29T00:36:49.695Z,49.37
2018-12-29T00:39:18.542Z,49.47
2018-12-29T00:41:47.363Z,47.70
2018-12-29T00:44:16.207Z,49.53
2018-12-29T00:46:45.096Z,46.37
2018-12-29T00:49:14.001Z,47.63
2018-12-29T00:51:42.847Z,49.33
2018-12-29T00:54:11.680Z,47.07
2018-12-29T00:56:40.551Z,45.73
2018-12-29T00:59:09.359Z,45.57
2018-12-29T01:01:38.234Z,48.47
2018-12-29T01:04:07.135Z,45.03
2018-12-29T01:06:36.042Z,45.73
2018-12-29T01:09:06.915Z,43.83
2018-12-29T01:11:35.823Z,44.87
2018-12-29T01:14:04.703Z,44.67
2018-12-29T01:16:33.532Z,44.13
2018-12-29T01:19:02.359Z,45.37
2018-12-29T01:21:31.194Z,44.43
2018-12-29T01:24:00.017Z,44.67
2018-12-29T01:26:28.833Z,44.93
2018-12-29T01:28:57.655Z,45.53
2018-12-29T01:31:26.480Z,44.63
2018-12-29T01:33:55.403Z,44.73
2018-12-29T01:36:24.256Z,44.07
2018-12-29T01:38:53.099Z,43.73
2018-12-29T01:41:21.975Z,44.50
2018-12-29T01:43:50.894Z,43.00
2018-12-29T01:46:19.782Z,43.40
2018-12-29T01:48:48.667Z,43.50
2018-12-29T01:51:17.546Z,41.90
2018-12-29T01:53:49.484Z,43.33
2018-12-29T01:56:18.411Z,41.70
2018-12-29T01:58:47.254Z,42.50
2018-12-29T02:01:16.159Z,41.73
2018-12-29T02:03:44.983Z,42.10
2018-12-29T02:06:13.829Z,42.77
2018-12-29T02:08:42.656Z,40.63
2018-12-29T02:11:11.502Z,41.37
2018-12-29T02:13:40.314Z,41.40
2018-12-29T02:16:09.151Z,40.50
2018-12-29T02:18:37.975Z,42.13
2018-12-29T02:21:06.831Z,41.63
2018-12-29T02:23:35.670Z,40.43
2018-12-29T02:26:04.531Z,39.33
2018-12-29T02:28:33.358Z,38.70
2018-12-29T02:31:02.211Z,38.97
2018-12-29T02:33:31.013Z,39.53
2018-12-29T02:35:59.851Z,37.87
2018-12-29T02:38:28.684Z,38.90
2018-12-29T02:40:57.483Z,38.53
2018-12-29T02:43:26.476Z,38.43
2018-12-29T02:45:55.305Z,38.13
2018-12-29T02:48:24.126Z,37.53
2018-12-29T02:50:52.930Z,36.27
2018-12-29T02:53:21.773Z,36.43
2018-12-29T02:55:50.606Z,35.13
2018-12-29T02:58:19.445Z,36.03
2018-12-29T03:00:48.328Z,35.87
2018-12-29T03:03:17.158Z,35.30
2018-12-29T03:05:45.994Z,35.70
2018-12-29T03:08:14.836Z,35.80
2018-12-29T03:10:43.732Z,35.57
2018-12-29T03:13:12.567Z,33.70
2018-12-29T03:15:42.017Z,36.27
2018-12-29T03:18:11.028Z,35.50
2018-12-29T03:20:39.863Z,34.63
2018-12-29T03:23:08.837Z,35.87
2018-12-29T03:25:37.690Z,36.13
2018-12-29T03:28:06.548Z,34.47
2018-12-29T03:30:35.454Z,36.97
2018-12-29T03:33:04.716Z,36.00
2018-12-29T03:35:33.655Z,34.57
2018-12-29T03:38:02.555Z,35.57
2018-12-29T03:40:31.368Z,34.50
2018-12-29T03:43:00.283Z,35.03
2018-12-29T03:45:29.107Z,36.43
2018-12-29T03:47:57.942Z,34.77
2018-12-29T03:50:26.767Z,35.27
2018-12-29T03:52:56.046Z,35.23
2018-12-29T03:55:24.870Z,34.73
2018-12-29T03:57:53.772Z,34.53
2018-12-29T04:00:22.592Z,34.77
2018-12-29T04:02:51.442Z,35.27
2018-12-29T04:05:20.258Z,34.30
2018-12-29T04:07:49.094Z,34.57
2018-12-29T04:10:17.970Z,33.93
2018-12-29T04:12:53.419Z,34.37
2018-12-29T04:15:22.234Z,31.30
2018-12-29T04:17:51.102Z,32.80
2018-12-29T04:20:20.022Z,30.43
2018-12-29T04:22:48.832Z,30.37
2018-12-29T04:25:17.667Z,29.77
2018-12-29T04:27:46.475Z,28.57
2018-12-29T04:30:15.291Z,27.60
2018-12-29T04:32:44.102Z,28.50
2018-12-29T04:35:12.923Z,28.83
2018-12-29T04:37:41.734Z,28.33
2018-12-29T04:40:10.564Z,27.10
2018-12-29T04:42:39.366Z,28.67
2018-12-29T04:45:08.194Z,27.57
2018-12-29T04:47:37.010Z,27.43
2018-12-29T04:50:06.880Z,27.63
2018-12-29T04:52:35.681Z,27.47
2018-12-29T04:55:05.188Z,28.27
2018-12-29T04:57:34.003Z,28.20
2018-12-29T05:00:02.895Z,28.90
2018-12-29T05:02:31.740Z,29.33
2018-12-29T05:05:00.577Z,29.80
2018-12-29T05:07:29.392Z,29.77
2018-12-29T05:09:58.271Z,27.97
2018-12-29T05:12:27.092Z,29.00
2018-12-29T05:14:55.951Z,29.53
2018-12-29T05:17:24.767Z,30.20
2018-12-29T05:19:53.601Z,29.37
2018-12-29T05:22:22.447Z,28.63
2018-12-29T05:24:51.282Z,29.90
2018-12-29T05:27:20.106Z,30.20
2018-12-29T05:29:48.946Z,28.83
2018-12-29T05:32:17.763Z,29.80
2018-12-29T05:34:46.601Z,29.33
2018-12-29T05:37:15.411Z,29.87
2018-12-29T05:39:44.559Z,30.77
2018-12-29T05:42:13.364Z,30.93
2018-12-29T05:44:42.180Z,31.37
2018-12-29T05:47:10.984Z,31.77
2018-12-29T05:49:39.799Z,32.73
2018-12-29T05:52:08.603Z,31.03
2018-12-29T05:54:37.439Z,32.60
2018-12-29T05:57:06.259Z,32.47
2018-12-29T05:59:35.083Z,33.53
2018-12-29T06:02:03.997Z,32.73
2018-12-29T06:04:32.812Z,33.83
2018-12-29T06:07:01.638Z,33.90
2018-12-29T06:09:30.447Z,32.27
2018-12-29T06:11:59.285Z,32.37
2018-12-29T06:14:28.103Z,33.70
2018-12-29T06:16:57.062Z,31.70
2018-12-29T06:19:25.886Z,33.53
2018-12-29T06:21:54.709Z,33.60
2018-12-29T06:24:23.513Z,31.93
2018-12-29T06:26:52.363Z,34.10
2018-12-29T06:29:21.174Z,33.67
2018-12-29T06:31:50.052Z,34.13
2018-12-29T06:34:18.862Z,33.57
2018-12-29T06:36:47.731Z,33.37
2018-12-29T06:39:16.633Z,34.57
2018-12-29T06:41:45.477Z,34.50
2018-12-29T06:44:14.314Z,34.90
2018-12-29T06:46:43.141Z,36.27
2018-12-29T06:49:12.043Z,34.03
2018-12-29T06:51:40.909Z,36.70
2018-12-29T06:54:09.754Z,36.10
2018-12-29T06:56:38.594Z,36.57
2018-12-29T06:59:07.461Z,34.83
2018-12-29T07:01:36.326Z,35.37
2018-12-29T07:04:05.174Z,36.53
2018-12-29T07:06:34.035Z,35.53
2018-12-29T07:09:03.647Z,34.57
2018-12-29T07:11:32.520Z,34.13
2018-12-29T07:14:01.370Z,34.07
2018-12-29T07:16:30.211Z,31.67
2018-12-29T07:18:59.054Z,32.13
2018-12-29T07:21:27.937Z,30.93
2018-12-29T07:23:56.770Z,31.23
2018-12-29T07:26:25.595Z,30.97
2018-12-29T07:28:54.412Z,29.67
2018-12-29T07:31:23.219Z,30.43
2018-12-29T07:33:52.069Z,31.73
2018-12-29T07:36:20.994Z,30.17
2018-12-29T07:38:49.887Z,30.93
2018-12-29T07:41:18.878Z,30.73
2018-12-29T07:43:47.743Z,31.47
2018-12-29T07:46:16.567Z,31.83
2018-12-29T07:48:45.419Z,32.30
2018-12-29T07:51:14.222Z,32.70
2018-12-29T07:53:43.067Z,32.57
2018-12-29T07:56:11.956Z,32.13
2018-12-29T07:58:40.887Z,33.57
2018-12-29T08:01:09.718Z,33.77
2018-12-29T08:03:38.550Z,32.47
2018-12-29T08:06:07.370Z,33.70
2018-12-29T08:08:36.223Z,33.70
2018-12-29T08:11:05.048Z,33.10
2018-12-29T08:13:33.884Z,33.47
2018-12-29T08:16:02.705Z,34.43
2018-12-29T08:18:31.531Z,35.70
2018-12-29T08:21:00.387Z,32.73
2018-12-29T08:23:29.222Z,32.87
2018-12-29T08:25:58.050Z,32.47
2018-12-29T08:28:26.990Z,32.83
2018-12-29T08:30:55.830Z,32.97
2018-12-29T08:33:24.678Z,32.70
2018-12-29T08:35:53.506Z,30.60
2018-12-29T08:38:22.332Z,31.83
2018-12-29T08:40:51.184Z,31.27
2018-12-29T08:43:20.018Z,31.47
2018-12-29T08:45:48.915Z,30.87
2018-12-29T08:48:17.731Z,32.67
2018-12-29T08:50:46.575Z,31.00
2018-12-29T08:53:15.399Z,30.27
2018-12-29T08:55:44.249Z,31.77
2018-12-29T08:58:13.098Z,32.43
2018-12-29T09:00:41.940Z,32.10
2018-12-29T09:03:10.766Z,33.10
2018-12-29T09:05:39.671Z,32.43
2018-12-29T09:08:08.499Z,32.13
2018-12-29T09:10:37.345Z,32.30
2018-12-29T09:13:06.229Z,33.60
2018-12-29T09:15:35.078Z,35.43
2018-12-29T09:18:03.963Z,34.70
2018-12-29T09:20:32.902Z,34.13
2018-12-29T09:23:01.722Z,33.97
2018-12-29T09:25:30.547Z,33.40
2018-12-29T09:27:59.362Z,34.17
2018-12-29T09:30:28.174Z,33.70
2018-12-29T09:32:57.011Z,35.23
2018-12-29T09:35:25.833Z,34.03
2018-12-29T09:37:54.671Z,33.90
2018-12-29T09:40:23.476Z,33.43
2018-12-29T09:42:52.291Z,34.10
2018-12-29T09:45:21.108Z,34.10
2018-12-29T09:47:49.951Z,32.97
2018-12-29T09:50:18.780Z,34.23
2018-12-29T09:52:47.615Z,34.00
2018-12-29T09:55:16.425Z,31.97
2018-12-29T09:57:45.266Z,30.87
2018-12-29T10:00:14.152Z,31.33
2018-12-29T10:02:42.978Z,30.97
2018-12-29T10:05:11.863Z,30.17
2018-12-29T10:07:40.751Z,31.23
2018-12-29T10:10:09.667Z,29.47
2018-12-29T10:12:38.473Z,30.27
2018-12-29T10:15:07.834Z,29.13
2018-12-29T10:17:36.735Z,29.90
2018-12-29T10:20:06.026Z,30.73
2018-12-29T10:22:34.843Z,30.83
2018-12-29T10:25:03.752Z,30.37
2018-12-29T10:27:32.554Z,29.77
2018-12-29T10:30:01.398Z,28.80
2018-12-29T10:32:30.196Z,30.23
2018-12-29T10:34:59.042Z,31.03
2018-12-29T10:37:27.873Z,29.47
2018-12-29T10:39:56.706Z,30.47
2018-12-29T10:42:25.650Z,32.07
2018-12-29T10:44:54.502Z,32.50
2018-12-29T10:47:23.343Z,33.43
2018-12-29T10:49:52.199Z,34.60
2018-12-29T10:52:21.001Z,35.20
2018-12-29T10:54:49.818Z,34.27
2018-12-29T10:57:18.673Z,35.00
2018-12-29T10:59:47.494Z,33.53
2018-12-29T11:02:16.375Z,32.60
2018-12-29T11:04:45.307Z,32.97
2018-12-29T11:07:14.149Z,32.20
2018-12-29T11:09:42.942Z,34.30
2018-12-29T11:12:11.804Z,34.03
2018-12-29T11:14:40.659Z,33.27
2018-12-29T11:17:09.505Z,32.63
2018-12-29T11:19:38.314Z,33.43
2018-12-29T11:22:07.155Z,32.73
2018-12-29T11:24:37.445Z,33.80
2018-12-29T11:27:06.487Z,33.47
2018-12-29T11:29:35.307Z,34.83
2018-12-29T11:32:04.289Z,34.73
2018-12-29T11:34:33.086Z,35.10
2018-12-29T11:37:01.927Z,35.30
2018-12-29T11:39:30.750Z,34.20
2018-12-29T11:41:59.575Z,35.73
2018-12-29T11:44:28.398Z,35.10
2018-12-29T11:46:57.254Z,35.03
2018-12-29T11:49:26.098Z,35.63
2018-12-29T11:51:55.011Z,36.33
2018-12-29T11:54:25.306Z,36.93
2018-12-29T11:56:54.650Z,37.80
2018-12-29T11:59:23.492Z,36.60
2018-12-29T12:01:52.283Z,37.43
2018-12-29T12:04:21.107Z,36.60
2018-12-29T12:06:49.935Z,37.47
2018-12-29T12:09:18.839Z,38.97
2018-12-29T12:11:47.727Z,37.67
2018-12-29T12:14:16.546Z,37.10
2018-12-29T12:16:45.641Z,40.00
2018-12-29T12:19:14.549Z,41.13
2018-12-29T12:21:43.736Z,39.03
2018-12-29T12:24:12.575Z,42.20
2018-12-29T12:26:41.486Z,41.93
2018-12-29T12:29:10.389Z,41.20
2018-12-29T12:31:39.609Z,42.63
2018-12-29T12:34:08.562Z,41.77
2018-12-29T12:36:37.781Z,42.63
2018-12-29T12:39:07.938Z,41.80
2018-12-29T12:41:37.288Z,42.33
2018-12-29T12:44:06.216Z,42.07
2018-12-29T12:46:35.366Z,42.63
2018-12-29T12:49:04.759Z,43.50
2018-12-29T12:51:33.592Z,42.90
2018-12-29T12:54:02.487Z,43.93
2018-12-29T12:56:31.433Z,44.07
2018-12-29T12:59:00.639Z,43.87
2018-12-29T13:01:29.454Z,43.83
2018-12-29T13:03:58.290Z,42.27
2018-12-29T13:06:27.114Z,44.73
2018-12-29T13:08:55.946Z,43.10
2018-12-29T13:11:25.287Z,43.30
2018-12-29T13:13:54.182Z,42.83
2018-12-29T13:16:23.047Z,41.67
2018-12-29T13:18:51.986Z,40.97
2018-12-29T13:21:20.914Z,39.27
2018-12-29T13:23:50.123Z,40.57
2018-12-29T13:26:18.941Z,40.37
2018-12-29T13:28:47.851Z,40.53
2018-12-29T13:31:16.806Z,41.63
2018-12-29T13:33:45.731Z,38.57
2018-12-29T13:36:14.963Z,38.07
2018-12-29T13:38:43.843Z,38.53
2018-12-29T13:41:13.078Z,38.27
2018-12-29T13:43:42.031Z,38.10
2018-12-29T13:46:10.947Z,38.83
2018-12-29T13:48:39.850Z,38.57
2018-12-29T13:51:08.738Z,37.63
2018-12-29T13:53:37.590Z,37.00
2018-12-29T13:56:06.604Z,36.47
2018-12-29T13:58:35.494Z,35.23
2018-12-29T14:01:04.403Z,35.53
2018-12-29T14:03:33.370Z,35.23
2018-12-29T14:06:02.207Z,34.47
2018-12-29T14:08:31.106Z,33.53
2018-12-29T14:10:59.947Z,34.67
2018-12-29T14:13:28.759Z,33.90
2018-12-29T14:15:57.669Z,32.07
2018-12-29T14:18:28.429Z,32.43
2018-12-29T14:20:57.250Z,31.00
2018-12-29T14:23:26.590Z,30.97
2018-12-29T14:25:55.422Z,30.70
2018-12-29T14:28:24.230Z,29.97
2018-12-29T14:30:53.079Z,29.10
2018-12-29T14:33:21.880Z,27.20
2018-12-29T14:35:50.687Z,29.00
2018-12-29T14:38:19.511Z,27.67
2018-12-29T14:40:48.418Z,28.77
2018-12-29T14:43:17.238Z,27.23
2018-12-29T14:45:46.092Z,29.53
2018-12-29T14:48:14.987Z,31.07
2018-12-29T14:50:43.837Z,30.90
2018-12-29T14:53:12.683Z,32.13
2018-12-29T14:55:41.599Z,32.53
2018-12-29T14:58:10.442Z,31.63
2018-12-29T15:00:40.385Z,31.67
2018-12-29T15:03:09.263Z,30.73
2018-12-29T15:05:38.370Z,29.30
2018-12-29T15:08:07.256Z,28.50
2018-12-29T15:10:36.685Z,29.27
2018-12-29T15:13:06.062Z,30.83
2018-12-29T15:15:34.962Z,32.03
2018-12-29T15:18:04.535Z,32.60
2018-12-29T15:20:33.864Z,31.67
2018-12-29T15:23:03.369Z,32.90
2018-12-29T15:25:32.346Z,33.40
2018-12-29T15:28:01.245Z,34.83
2018-12-29T15:30:30.114Z,35.37
2018-12-29T15:32:59.107Z,33.07
2018-12-29T15:35:28.069Z,34.87
2018-12-29T15:37:57.483Z,36.27
2018-12-29T15:40:26.545Z,35.30
2018-12-29T15:42:55.560Z,34.60
2018-12-29T15:45:24.941Z,34.87
2018-12-29T15:47:53.879Z,33.20
2018-12-29T15:50:22.926Z,32.63
2018-12-29T15:52:52.198Z,30.77
2018-12-29T15:55:21.066Z,30.07
2018-12-29T15:57:50.146Z,29.30
2018-12-29T16:00:19.159Z,28.87
2018-12-29T16:02:48.060Z,28.93
2018-12-29T16:05:36.446Z,28.90
2018-12-29T16:08:05.783Z,27.67
2018-12-29T16:10:34.886Z,26.67
2018-12-29T16:13:03.954Z,26.80
2018-12-29T16:15:33.075Z,27.37
2018-12-29T16:18:02.330Z,26.43
2018-12-29T16:20:32.399Z,25.40
2018-12-29T16:23:01.390Z,24.80
2018-12-29T16:25:30.522Z,25.40
2018-12-29T16:27:59.623Z,24.23
2018-12-29T16:30:28.826Z,24.10
2018-12-29T16:32:58.273Z,24.80
2018-12-29T16:35:27.217Z,23.93
2018-12-29T16:37:56.734Z,22.60
2018-12-29T16:40:25.822Z,23.03
2018-12-29T16:42:54.952Z,21.37
2018-12-29T16:45:24.334Z,23.30
2018-12-29T16:47:53.414Z,21.43
2018-12-29T16:50:22.509Z,22.20
2018-12-29T16:52:51.542Z,21.73
2018-12-29T16:55:21.695Z,20.57
2018-12-29T16:57:50.639Z,20.73
2018-12-29T17:00:19.619Z,21.23
2018-12-29T17:02:48.530Z,19.23
2018-12-29T17:05:17.518Z,19.17
2018-12-29T17:07:46.399Z,18.47
2018-12-29T17:10:15.262Z,19.30
2018-12-29T17:12:44.200Z,18.60
2018-12-29T17:15:13.375Z,18.27
2018-12-29T17:17:43.203Z,17.73
2018-12-29T17:20:13.646Z,17.43
2018-12-29T17:22:43.883Z,17.47
2018-12-29T17:25:13.382Z,17.67
2018-12-29T17:27:42.499Z,17.33
2018-12-29T17:30:11.490Z,16.07
2018-12-29T17:32:40.719Z,18.03
2018-12-29T17:35:09.855Z,16.97
2018-12-29T17:37:38.828Z,17.07
2018-12-29T17:40:09.032Z,18.00
2018-12-29T17:42:38.032Z,19.67
2018-12-29T17:45:07.393Z,18.47
2018-12-29T17:47:36.594Z,18.10
2018-12-29T17:50:06.028Z,20.33
2018-12-29T17:52:35.011Z,19.13
2018-12-29T17:55:04.402Z,19.03
2018-12-29T17:57:33.305Z,19.83
2018-12-29T18:00:02.313Z,20.70
2018-12-29T18:02:31.271Z,20.17
2018-12-29T18:05:00.313Z,21.33
2018-12-29T18:07:29.474Z,21.73
2018-12-29T18:09:58.469Z,23.00
2018-12-29T18:12:27.625Z,22.43
2018-12-29T18:14:59.497Z,23.07
2018-12-29T18:17:28.591Z,22.97
2018-12-29T18:19:57.722Z,23.10
2018-12-29T18:22:28.028Z,23.80
2018-12-29T18:25:00.410Z,25.17
2018-12-29T18:27:29.515Z,23.57
2018-12-29T18:29:58.604Z,22.40
2018-12-29T18:32:27.664Z,23.13
2018-12-29T18:34:56.769Z,23.77
2018-12-29T18:37:26.892Z,22.70
2018-12-29T18:39:56.267Z,23.00
2018-12-29T18:42:25.300Z,23.47
2018-12-29T18:44:54.257Z,23.47
2018-12-29T18:47:24.302Z,23.27
2018-12-29T18:49:53.893Z,22.77
2018-12-29T18:52:23.222Z,23.17
2018-12-29T18:54:52.205Z,22.73
2018-12-29T18:57:21.127Z,22.37
2018-12-29T18:59:50.418Z,22.93
2018-12-29T19:02:20.435Z,22.50
2018-12-29T19:04:50.316Z,22.97
2018-12-29T19:07:19.525Z,21.97
2018-12-29T19:09:48.519Z,23.20
2018-12-29T19:12:17.702Z,21.60
2018-12-29T19:14:46.753Z,23.63
2018-12-29T19:17:15.770Z,23.67
2018-12-29T19:19:46.455Z,23.77
2018-12-29T19:22:15.733Z,24.73
2018-12-29T19:24:44.707Z,23.23
2018-12-29T19:27:13.747Z,23.23
2018-12-29T19:29:42.996Z,23.57
2018-12-29T19:32:12.311Z,23.77
2018-12-29T19:34:42.694Z,23.90
2018-12-29T19:37:12.011Z,22.60
2018-12-29T19:39:41.316Z,24.07
2018-12-29T19:42:10.390Z,22.97
2018-12-29T19:44:40.339Z,20.37
2018-12-29T19:47:09.259Z,19.67
2018-12-29T19:49:38.203Z,17.30
2018-12-29T19:52:08.773Z,17.23
2018-12-29T19:54:37.825Z,16.53
2018-12-29T19:57:07.323Z,15.97
2018-12-29T19:59:36.729Z,14.87
2018-12-29T20:02:05.809Z,13.57
2018-12-29T20:04:34.749Z,13.20
2018-12-29T20:07:04.009Z,13.00
2018-12-29T20:09:33.002Z,10.53
2018-12-29T20:12:02.028Z,6.20
2018-12-29T20:14:31.098Z,7.00
2018-12-29T20:17:00.138Z,6.17
2018-12-29T20:19:30.555Z,4.57
2018-12-29T20:22:01.048Z,4.20
2018-12-29T20:24:30.392Z,3.77
2018-12-29T20:26:59.350Z,2.60
2018-12-29T20:29:28.371Z,2.20
2018-12-29T20:31:57.347Z,2.20
2018-12-29T20:34:26.366Z,2.20
2018-12-29T20:36:55.458Z,1.73
2018-12-29T20:39:24.494Z,2.27
2018-12-29T20:41:55.348Z,2.20
2018-12-29T20:44:25.600Z,2.00
2018-12-29T20:46:56.970Z,1.90
2018-12-29T20:49:25.671Z,1.63
2018-12-29T20:51:54.662Z,1.80
2018-12-29T20:54:25.638Z,2.10
2018-12-29T20:56:54.829Z,1.80
2018-12-29T20:59:23.798Z,1.63
2018-12-29T21:01:52.851Z,1.90
2018-12-29T21:04:21.846Z,1.43
2018-12-29T21:06:50.778Z,1.60
2018-12-29T21:09:19.865Z,1.50
2018-12-29T21:11:52.358Z,1.50
2018-12-29T21:14:21.351Z,1.50
2018-12-29T21:16:52.474Z,1.93
2018-12-29T21:19:21.832Z,1.73
2018-12-29T21:21:50.914Z,1.77
2018-12-29T21:24:19.899Z,1.90
2018-12-29T21:26:50.579Z,2.07
2018-12-29T21:29:19.943Z,1.73
2018-12-29T21:31:50.896Z,1.80
2018-12-29T21:34:20.310Z,1.47
2018-12-29T21:36:51.391Z,1.70
2018-12-29T21:39:22.802Z,2.20
2018-12-29T21:41:52.583Z,2.07
2018-12-29T21:44:23.035Z,2.40
2018-12-29T21:46:52.483Z,2.07
2018-12-29T21:49:21.710Z,2.17
2018-12-29T21:51:50.983Z,1.80
2018-12-29T21:54:20.340Z,2.20
2018-12-29T21:56:49.540Z,2.23
2018-12-29T21:59:18.754Z,2.60
2018-12-29T22:01:47.958Z,2.30
2018-12-29T22:04:17.683Z,2.63
2018-12-29T22:06:47.142Z,2.37
2018-12-29T22:09:16.410Z,2.50
2018-12-29T22:11:46.067Z,2.37
2018-12-29T22:14:15.274Z,2.60
2018-12-29T22:16:44.774Z,2.37
2018-12-29T22:19:14.071Z,2.97
2018-12-29T22:21:43.294Z,2.23
2018-12-29T22:24:12.584Z,2.50
2018-12-29T22:26:41.778Z,2.60
2018-12-29T22:29:10.983Z,2.40
2018-12-29T22:31:40.195Z,2.50
2018-12-29T22:34:09.464Z,2.77
2018-12-29T22:36:38.851Z,2.07
2018-12-29T22:39:08.186Z,2.70
2018-12-29T22:41:37.484Z,2.40
2018-12-29T22:44:06.724Z,2.80
2018-12-29T22:46:36.014Z,3.17
2018-12-29T22:49:05.269Z,2.50
2018-12-29T22:51:34.473Z,2.77
2018-12-29T22:54:03.738Z,2.50
2018-12-29T22:56:33.215Z,2.73
2018-12-29T22:59:02.639Z,1.87
2018-12-29T23:01:32.359Z,1.93
2018-12-29T23:04:01.811Z,2.20
2018-12-29T23:06:31.251Z,2.30
2018-12-29T23:09:00.895Z,2.10
2018-12-29T23:11:30.767Z,1.97
2018-12-29T23:14:00.065Z,2.37
2018-12-29T23:16:29.538Z,2.53
2018-12-29T23:18:59.344Z,1.77
2018-12-29T23:21:28.604Z,1.63
2018-12-29T23:24:00.000Z,1.83
2018-12-29T23:26:29.960Z,1.83
2018-12-29T23:28:59.348Z,1.83
2018-12-29T23:31:29.024Z,2.37
2018-12-29T23:33:58.285Z,1.67
2018-12-29T23:36:27.951Z,1.80
2018-12-29T23:38:57.222Z,1.70
2018-12-29T23:41:26.463Z,1.90
2018-12-29T23:43:55.646Z,1.77
2018-12-29T23:46:25.004Z,1.80
2018-12-29T23:48:54.362Z,1.77
2018-12-29T23:51:23.531Z,1.73
2018-12-29T23:53:52.749Z,1.93
2018-12-29T23:56:22.345Z,1.80
2018-12-29T23:58:51.572Z,2.20
